createdAt,value
2019-04-14T00:00:53.463Z,14.83
2019-04-14T00:06:39.948Z,19.57
2019-04-14T00:09:21.007Z,22.32
2019-04-14T00:12:04.712Z,12.55
2019-04-14T00:14:44.690Z,13.22
2019-04-14T00:17:26.170Z,16.25
2019-04-14T00:20:07.374Z,26.90
2019-04-14T00:22:49.052Z,18.80
2019-04-14T00:25:30.511Z,24.95
2019-04-14T00:28:11.711Z,20.23
2019-04-14T00:30:53.419Z,20.77
2019-04-14T00:33:34.568Z,29.48
2019-04-14T00:36:19.979Z,23.18
2019-04-14T00:39:00.973Z,16.48
2019-04-14T00:42:03.392Z,20.50
2019-04-14T00:44:45.487Z,18.35
2019-04-14T00:50:21.145Z,15.38
2019-04-14T00:53:03.515Z,26.80
2019-04-14T00:55:44.871Z,19.32
2019-04-14T00:58:25.785Z,17.85
2019-04-14T01:01:06.933Z,19.80
2019-04-14T01:03:48.303Z,10.93
2019-04-14T01:06:29.418Z,25.02
2019-04-14T01:09:13.041Z,18.80
2019-04-14T01:11:57.429Z,17.50
2019-04-14T01:14:38.760Z,25.08
2019-04-14T01:17:19.912Z,20.15
2019-04-14T01:20:01.466Z,17.62
2019-04-14T01:22:42.483Z,17.75
2019-04-14T01:25:23.923Z,20.37
2019-04-14T01:28:04.665Z,24.60
2019-04-14T01:30:45.849Z,20.55
2019-04-14T01:33:27.259Z,16.57
2019-04-14T01:36:06.232Z,18.25
2019-04-14T01:38:54.199Z,15.40
2019-04-14T01:41:43.131Z,22.32
2019-04-14T01:44:32.980Z,22.37
2019-04-14T01:47:21.291Z,14.75
2019-04-14T01:50:10.499Z,21.60
2019-04-14T01:56:14.374Z,19.00
2019-04-14T02:04:50.946Z,20.70
2019-04-14T02:07:32.203Z,17.87
2019-04-14T02:10:13.260Z,27.42
2019-04-14T02:12:54.303Z,22.75
2019-04-14T02:15:35.575Z,19.90
2019-04-14T02:18:16.387Z,23.45
2019-04-14T02:20:57.893Z,52.65
2019-04-14T02:23:39.091Z,20.85
2019-04-14T02:26:19.771Z,28.50
2019-04-14T02:29:01.319Z,25.40
2019-04-14T02:32:09.916Z,23.02
2019-04-14T02:37:34.745Z,37.35
2019-04-14T02:40:21.717Z,33.30
2019-04-14T02:42:54.300Z,22.17
2019-04-14T02:45:45.235Z,19.52
2019-04-14T02:48:41.961Z,23.47
2019-04-14T02:53:53.349Z,30.12
2019-04-14T02:56:28.026Z,22.30
2019-04-14T02:59:13.134Z,30.88
2019-04-14T03:02:15.628Z,17.92
2019-04-14T03:10:03.286Z,23.12
2019-04-14T03:12:46.509Z,34.70
2019-04-14T03:15:35.320Z,31.45
2019-04-14T03:21:21.319Z,28.40
2019-04-14T03:30:06.762Z,32.00
2019-04-14T03:32:52.898Z,23.60
2019-04-14T03:38:11.367Z,23.05
2019-04-14T03:40:42.926Z,30.68
2019-04-14T03:43:28.320Z,22.58
2019-04-14T03:46:09.186Z,31.10
2019-04-14T03:51:38.282Z,17.80
2019-04-14T03:54:10.920Z,16.73
2019-04-14T03:56:33.483Z,21.93
2019-04-14T03:59:15.185Z,23.73
2019-04-14T04:01:56.639Z,19.48
2019-04-14T04:04:38.037Z,19.98
2019-04-14T04:07:19.270Z,27.30
2019-04-14T04:10:01.159Z,23.83
2019-04-14T04:12:42.221Z,29.27
2019-04-14T04:15:23.540Z,23.45
2019-04-14T04:18:24.678Z,23.70
2019-04-14T04:21:26.897Z,22.67
2019-04-14T04:27:20.028Z,23.42
2019-04-14T04:30:03.770Z,28.80
2019-04-14T04:35:43.699Z,18.80
2019-04-14T04:38:26.711Z,15.40
2019-04-14T04:41:08.042Z,35.03
2019-04-14T04:43:49.406Z,28.17
2019-04-14T04:46:30.926Z,21.87
2019-04-14T04:49:16.434Z,22.52
2019-04-14T04:51:55.034Z,21.40
2019-04-14T04:54:36.322Z,24.75
2019-04-14T04:57:17.912Z,21.48
2019-04-14T04:59:58.347Z,21.70
2019-04-14T05:02:39.616Z,27.20
2019-04-14T05:05:20.966Z,26.87
2019-04-14T05:08:02.240Z,26.48
2019-04-14T05:10:45.682Z,19.62
2019-04-14T05:13:27.047Z,21.33
2019-04-14T05:16:08.907Z,22.05
2019-04-14T05:18:50.847Z,18.87
2019-04-14T05:21:32.134Z,16.50
2019-04-14T05:24:13.619Z,19.32
2019-04-14T05:26:54.893Z,19.15
2019-04-14T05:29:36.432Z,19.32
2019-04-14T05:32:17.382Z,23.85
2019-04-14T05:34:58.723Z,25.92
2019-04-14T05:37:40.118Z,19.95
2019-04-14T05:40:18.963Z,23.70
2019-04-14T05:43:06.796Z,27.77
2019-04-14T05:45:56.665Z,13.45
2019-04-14T05:48:47.017Z,24.20
2019-04-14T05:51:35.279Z,17.70
2019-04-14T05:54:23.161Z,24.82
2019-04-14T05:57:13.378Z,20.65
2019-04-14T06:00:02.231Z,27.22
2019-04-14T06:02:50.680Z,26.50
2019-04-14T06:05:32.520Z,20.45
2019-04-14T06:08:13.251Z,22.98
2019-04-14T06:10:53.735Z,23.70
2019-04-14T06:13:34.122Z,22.20
2019-04-14T06:16:14.811Z,19.37
2019-04-14T06:18:55.516Z,22.52
2019-04-14T06:21:35.937Z,23.77
2019-04-14T06:24:16.586Z,21.23
2019-04-14T06:26:57.683Z,21.52
2019-04-14T06:29:38.023Z,17.07
2019-04-14T06:32:20.242Z,21.17
2019-04-14T06:35:20.689Z,26.00
2019-04-14T06:38:05.749Z,17.65
2019-04-14T06:40:47.480Z,21.85
2019-04-14T06:43:27.838Z,23.25
2019-04-14T06:46:08.451Z,19.52
2019-04-14T06:48:49.151Z,28.20
2019-04-14T06:51:29.760Z,17.30
2019-04-14T06:54:10.739Z,21.33
2019-04-14T06:56:51.233Z,21.45
2019-04-14T06:59:31.695Z,19.85
2019-04-14T07:02:12.230Z,21.75
2019-04-14T07:04:52.703Z,21.05
2019-04-14T07:07:33.439Z,21.02
2019-04-14T07:10:14.156Z,17.75
2019-04-14T07:12:54.625Z,26.17
2019-04-14T07:15:35.187Z,18.82
2019-04-14T07:18:16.732Z,17.62
2019-04-14T07:20:57.477Z,20.57
2019-04-14T07:23:38.137Z,21.70
2019-04-14T07:26:18.530Z,20.72
2019-04-14T07:28:59.136Z,16.90
2019-04-14T07:31:59.416Z,25.05
2019-04-14T07:34:42.235Z,16.80
2019-04-14T07:37:42.234Z,19.25
2019-04-14T07:40:24.520Z,18.17
2019-04-14T07:46:03.082Z,18.82
2019-04-14T07:48:45.988Z,22.48
2019-04-14T07:51:32.372Z,22.87
2019-04-14T07:57:33.939Z,33.63
2019-04-14T08:06:16.875Z,15.20
2019-04-14T08:08:57.415Z,16.02
2019-04-14T08:11:38.152Z,16.75
2019-04-14T08:14:19.039Z,13.35
2019-04-14T08:16:59.650Z,18.70
2019-04-14T08:19:40.283Z,16.45
2019-04-14T08:22:21.021Z,15.90
2019-04-14T08:25:01.695Z,17.00
2019-04-14T08:27:42.155Z,20.05
2019-04-14T08:30:22.655Z,15.48
2019-04-14T08:33:03.403Z,14.05
2019-04-14T08:35:44.195Z,15.15
2019-04-14T08:38:24.403Z,17.07
2019-04-14T08:41:04.967Z,17.25
2019-04-14T08:43:47.375Z,14.60
2019-04-14T08:52:27.635Z,17.17
2019-04-14T09:03:50.956Z,14.68
2019-04-14T09:06:35.903Z,14.40
2019-04-14T09:09:21.503Z,15.32
2019-04-14T09:15:09.659Z,21.25
2019-04-14T09:17:50.217Z,19.62
2019-04-14T09:20:30.616Z,16.75
2019-04-14T09:23:11.444Z,14.43
2019-04-14T09:25:51.931Z,14.25
2019-04-14T09:28:32.219Z,13.93
2019-04-14T09:31:12.859Z,16.32
2019-04-14T09:33:53.460Z,30.45
2019-04-14T09:36:33.852Z,17.10
2019-04-14T09:39:14.393Z,14.85
2019-04-14T09:41:55.059Z,14.78
2019-04-14T09:44:35.511Z,16.20
2019-04-14T09:47:16.275Z,18.70
2019-04-14T09:49:57.098Z,14.93
2019-04-14T09:52:38.062Z,11.75
2019-04-14T09:55:19.219Z,11.45
2019-04-14T09:57:59.711Z,16.35
2019-04-14T10:00:41.152Z,13.70
2019-04-14T10:03:22.520Z,11.78
2019-04-14T10:06:03.465Z,18.52
2019-04-14T10:08:44.029Z,12.63
2019-04-14T10:11:24.807Z,11.75
2019-04-14T10:14:05.441Z,15.35
2019-04-14T10:16:46.197Z,11.73
2019-04-14T10:19:26.917Z,11.88
2019-04-14T10:22:07.695Z,12.47
2019-04-14T10:24:48.502Z,12.13
2019-04-14T10:27:29.643Z,10.90
2019-04-14T10:30:10.273Z,11.50
2019-04-14T10:32:51.255Z,14.23
2019-04-14T10:35:31.967Z,10.60
2019-04-14T10:38:12.571Z,14.47
2019-04-14T10:40:53.287Z,13.00
2019-04-14T10:43:33.843Z,12.20
2019-04-14T10:46:14.476Z,14.95
2019-04-14T10:48:55.759Z,13.35
2019-04-14T10:51:36.727Z,13.15
2019-04-14T10:54:16.948Z,12.37
2019-04-14T10:56:57.190Z,14.70
2019-04-14T10:59:37.873Z,12.10
2019-04-14T11:02:19.035Z,11.70
2019-04-14T11:04:59.674Z,12.55
2019-04-14T11:07:40.527Z,14.68
2019-04-14T11:10:21.155Z,13.85
2019-04-14T11:13:02.216Z,11.28
2019-04-14T11:15:43.021Z,11.95
2019-04-14T11:18:23.728Z,14.38
2019-04-14T11:21:04.275Z,9.98
2019-04-14T11:23:44.867Z,14.38
2019-04-14T11:26:25.092Z,16.90
2019-04-14T11:29:05.606Z,14.53
2019-04-14T11:34:55.027Z,14.55
2019-04-14T11:37:57.815Z,14.10
2019-04-14T11:40:42.739Z,11.85
2019-04-14T11:43:23.770Z,13.98
2019-04-14T11:46:04.753Z,12.90
2019-04-14T11:48:45.212Z,14.58
2019-04-14T11:51:25.639Z,15.25
2019-04-14T11:54:06.343Z,14.15
2019-04-14T11:56:47.155Z,10.53
2019-04-14T11:59:48.222Z,12.80
2019-04-14T12:05:53.639Z,16.32
2019-04-14T12:08:54.947Z,13.25
2019-04-14T12:11:36.038Z,14.38
2019-04-14T12:14:17.025Z,16.35
2019-04-14T12:16:57.579Z,12.80
2019-04-14T12:19:38.380Z,16.85
2019-04-14T12:22:18.744Z,13.18
2019-04-14T12:24:59.036Z,14.15
2019-04-14T12:27:39.836Z,11.08
2019-04-14T12:30:20.299Z,13.20
2019-04-14T12:33:00.872Z,13.18
2019-04-14T12:35:41.427Z,14.55
2019-04-14T12:38:22.029Z,11.43
2019-04-14T12:41:04.381Z,14.78
2019-04-14T12:47:13.117Z,13.75
2019-04-14T12:49:58.088Z,14.83
2019-04-14T12:52:38.385Z,18.48
2019-04-14T12:55:19.059Z,14.18
2019-04-14T12:58:01.804Z,9.35
2019-04-14T13:03:37.127Z,11.97
2019-04-14T13:06:18.039Z,11.40
2019-04-14T13:08:58.543Z,17.48
2019-04-14T13:11:39.379Z,11.25
2019-04-14T13:14:19.975Z,13.72
2019-04-14T13:17:00.300Z,15.60
2019-04-14T13:19:41.356Z,12.98
2019-04-14T13:22:33.220Z,13.40
2019-04-14T13:25:04.904Z,12.28
2019-04-14T13:27:46.027Z,12.40
2019-04-14T13:30:28.496Z,11.38
2019-04-14T13:33:09.463Z,14.78
2019-04-14T13:35:50.220Z,21.50
2019-04-14T13:38:31.299Z,17.90
2019-04-14T13:41:12.316Z,11.57
2019-04-14T13:43:53.145Z,13.95
2019-04-14T13:46:33.833Z,11.90
2019-04-14T13:49:14.272Z,16.70
2019-04-14T13:51:55.086Z,14.18
2019-04-14T13:54:35.583Z,12.98
2019-04-14T13:57:16.243Z,13.28
2019-04-14T13:59:56.811Z,13.58
2019-04-14T14:02:37.247Z,10.82
2019-04-14T14:05:18.243Z,14.20
2019-04-14T14:07:58.995Z,15.72
2019-04-14T14:10:39.716Z,13.28
2019-04-14T14:13:25.021Z,14.87
2019-04-14T14:16:07.551Z,12.07
2019-04-14T14:19:07.447Z,13.35
2019-04-14T14:21:50.435Z,21.25
2019-04-14T14:24:51.801Z,12.82
2019-04-14T14:27:32.794Z,11.35
2019-04-14T14:30:15.261Z,11.00
2019-04-14T14:32:55.751Z,15.68
2019-04-14T14:35:36.342Z,12.50
2019-04-14T14:38:17.059Z,11.03
2019-04-14T14:40:59.340Z,10.40
2019-04-14T14:43:40.227Z,13.72
2019-04-14T14:49:44.599Z,10.60
2019-04-14T14:52:25.851Z,14.63
2019-04-14T14:55:06.162Z,10.65
2019-04-14T14:57:46.883Z,8.23
2019-04-14T15:00:28.923Z,10.15
2019-04-14T15:03:10.031Z,9.60
2019-04-14T15:05:50.867Z,9.03
2019-04-14T15:08:31.399Z,14.10
2019-04-14T15:11:12.182Z,7.35
2019-04-14T15:13:52.822Z,9.18
2019-04-14T15:16:33.604Z,9.10
2019-04-14T15:19:14.909Z,11.10
2019-04-14T15:21:55.540Z,10.53
2019-04-14T15:24:36.483Z,11.35
2019-04-14T15:27:17.131Z,11.68
2019-04-14T15:29:57.695Z,8.10
2019-04-14T15:32:38.351Z,6.10
2019-04-14T15:35:19.079Z,8.13
2019-04-14T15:37:59.723Z,9.68
2019-04-14T15:40:40.395Z,7.65
2019-04-14T15:43:21.191Z,8.75
2019-04-14T15:46:01.740Z,10.03
2019-04-14T15:48:42.660Z,13.05
2019-04-14T15:51:22.947Z,7.03
2019-04-14T15:54:03.576Z,9.53
2019-04-14T15:56:48.823Z,7.47
2019-04-14T15:59:49.024Z,8.13
2019-04-14T16:02:35.610Z,10.10
2019-04-14T16:08:29.252Z,7.67
2019-04-14T16:11:29.396Z,10.80
2019-04-14T16:14:12.147Z,13.98
2019-04-14T16:17:11.545Z,13.43
2019-04-14T16:19:54.502Z,25.12
2019-04-14T16:22:42.495Z,9.08
2019-04-14T16:25:49.641Z,7.33
2019-04-14T16:28:56.544Z,7.40
2019-04-14T16:32:03.457Z,9.45
2019-04-14T16:37:59.983Z,7.50
2019-04-14T16:40:48.045Z,9.53
2019-04-14T16:43:35.755Z,8.83
2019-04-14T16:46:23.479Z,6.80
2019-04-14T16:49:11.491Z,9.48
2019-04-14T16:52:18.643Z,9.60
2019-04-14T16:58:34.304Z,6.25
2019-04-14T17:01:41.216Z,11.00
2019-04-14T17:04:21.955Z,11.35
2019-04-14T17:07:02.663Z,9.13
2019-04-14T17:09:43.379Z,8.35
2019-04-14T17:12:24.384Z,17.15
2019-04-14T17:18:28.556Z,10.10
2019-04-14T17:21:27.948Z,7.53
2019-04-14T17:30:15.163Z,8.60
2019-04-14T17:33:00.439Z,5.35
2019-04-14T17:41:40.306Z,11.33
2019-04-14T17:44:25.991Z,10.15
2019-04-14T17:47:10.923Z,10.25
2019-04-14T17:52:57.339Z,13.43
2019-04-14T17:58:43.991Z,7.22
2019-04-14T18:01:26.307Z,9.18
2019-04-14T18:04:09.290Z,7.17
2019-04-14T18:06:54.157Z,7.62
2019-04-14T18:09:55.104Z,3.92
2019-04-14T18:12:37.254Z,5.90
2019-04-14T18:15:22.568Z,10.82
2019-04-14T18:18:23.954Z,10.03
2019-04-14T18:21:06.031Z,5.72
2019-04-14T18:23:46.992Z,7.75
2019-04-14T18:26:27.761Z,8.85
2019-04-14T18:29:28.895Z,3.65
2019-04-14T18:35:18.226Z,4.10
2019-04-14T18:41:11.115Z,6.53
2019-04-14T18:43:52.955Z,7.37
2019-04-14T18:49:58.567Z,4.33
2019-04-14T18:55:44.908Z,6.35
2019-04-14T19:01:29.429Z,6.25
2019-04-14T19:04:10.286Z,6.97
2019-04-14T19:06:50.703Z,10.00
2019-04-14T19:09:30.878Z,6.90
2019-04-14T19:15:10.374Z,5.90
2019-04-14T19:17:53.175Z,11.48
2019-04-14T19:20:33.731Z,5.33
2019-04-14T19:23:14.080Z,9.85
2019-04-14T19:25:55.066Z,13.13
2019-04-14T19:28:35.671Z,3.33
2019-04-14T19:31:16.383Z,4.62
2019-04-14T19:33:57.055Z,6.92
2019-04-14T19:36:37.955Z,6.33
2019-04-14T19:39:18.638Z,4.60
2019-04-14T19:41:59.412Z,4.75
2019-04-14T19:44:39.802Z,8.18
2019-04-14T19:47:20.531Z,5.30
2019-04-14T19:50:01.125Z,5.05
2019-04-14T19:52:41.706Z,3.20
2019-04-14T19:55:22.727Z,4.45
2019-04-14T19:58:03.609Z,2.45
2019-04-14T20:00:43.947Z,2.40
2019-04-14T20:03:25.219Z,2.95
2019-04-14T20:06:06.054Z,6.17
2019-04-14T20:08:46.231Z,5.80
2019-04-14T20:11:26.946Z,3.90
2019-04-14T20:14:08.212Z,4.78
2019-04-14T20:17:09.380Z,3.75
2019-04-14T20:20:09.268Z,5.10
2019-04-14T20:23:10.682Z,2.75
2019-04-14T20:26:11.630Z,2.15
2019-04-14T20:28:56.475Z,3.10
2019-04-14T20:31:39.050Z,4.35
2019-04-14T20:34:20.165Z,3.00
2019-04-14T20:37:00.983Z,2.20
2019-04-14T20:39:41.532Z,2.92
2019-04-14T20:42:22.251Z,4.62
2019-04-14T20:45:04.731Z,5.10
2019-04-14T20:47:44.939Z,4.65
2019-04-14T20:50:26.088Z,3.65
2019-04-14T20:53:06.744Z,3.58
2019-04-14T20:55:47.874Z,4.72
2019-04-14T20:58:28.435Z,6.12
2019-04-14T21:01:10.930Z,1.98
2019-04-14T21:06:46.736Z,6.58
2019-04-14T21:09:28.736Z,3.75
2019-04-14T21:12:14.079Z,2.50
2019-04-14T21:15:14.353Z,3.67
2019-04-14T21:18:14.855Z,3.45
2019-04-14T21:20:57.528Z,4.17
2019-04-14T21:23:40.156Z,4.33
2019-04-14T21:26:22.971Z,3.70
2019-04-14T21:29:05.607Z,2.90
2019-04-14T21:31:48.455Z,8.20
2019-04-14T21:34:30.904Z,2.40
2019-04-14T21:40:36.370Z,4.92
2019-04-14T21:43:16.832Z,3.50
2019-04-14T21:45:57.971Z,2.95
2019-04-14T21:48:38.689Z,2.15
2019-04-14T21:51:19.219Z,1.82
2019-04-14T21:53:59.752Z,5.15
2019-04-14T21:56:40.675Z,6.45
2019-04-14T22:02:34.787Z,3.40
2019-04-14T22:05:19.555Z,3.00
2019-04-14T22:11:07.595Z,3.05
2019-04-14T22:13:51.129Z,4.15
2019-04-14T22:16:31.001Z,4.25
2019-04-14T22:19:11.590Z,5.60
2019-04-14T22:21:52.643Z,6.50
2019-04-14T22:24:33.023Z,5.62
2019-04-14T22:27:13.491Z,3.67
2019-04-14T22:29:54.331Z,3.60
2019-04-14T22:32:34.980Z,6.15
2019-04-14T22:35:15.543Z,8.15
2019-04-14T22:37:56.771Z,3.25
2019-04-14T22:40:37.705Z,6.28
2019-04-14T22:43:18.467Z,4.20
2019-04-14T22:45:58.803Z,3.22
2019-04-14T22:48:39.592Z,5.40
2019-04-14T22:51:20.181Z,4.05
2019-04-14T22:54:00.491Z,4.25
2019-04-14T22:56:40.819Z,3.75
2019-04-14T22:59:21.232Z,6.12
2019-04-14T23:02:06.175Z,5.97
2019-04-14T23:07:59.130Z,7.85
2019-04-14T23:10:41.710Z,5.20
2019-04-14T23:16:47.347Z,6.47
2019-04-14T23:22:35.784Z,7.10
2019-04-14T23:25:16.984Z,5.30
2019-04-14T23:27:57.504Z,5.80
2019-04-14T23:30:38.335Z,4.35
2019-04-14T23:33:19.283Z,3.33
2019-04-14T23:35:59.592Z,5.72
2019-04-14T23:38:40.147Z,9.88
2019-04-14T23:41:20.563Z,6.72
2019-04-14T23:44:01.163Z,5.78
2019-04-14T23:46:41.475Z,6.53
2019-04-14T23:49:22.483Z,4.35
2019-04-14T23:52:03.199Z,5.97
2019-04-14T23:54:43.619Z,6.08
2019-04-14T23:57:24.033Z,5.30
